TS98 weather

Memorial Hermann Southwest Hospital Heliport
Houston, Texas, United States

Public forecast

Using degrees Fahrenheit for public forecast. Weather courtesy of forecast.io.

Closest aviation weather report (METAR) to Memorial Hermann Southwest Hospital Heliport

Closest report is Sugar Land Regional Airport, 8.3 nm (15.4 km) WSW. Retrieved 2020/08/04 01:53 UTC (42 minutes ago):

KSGR 040153Z 19009KT 10SM CLR 30/24 A2996 RMK AO2 SLP145 T03000244

Closest aviation forecast (TAF) to Memorial Hermann Southwest Hospital Heliport

Closest forecast is Sugar Land Regional Airport, 8.3 nm (15.4 km) WSW. Retrieved 2020-08-04 00:30 UTC (2 hours ago):

TAF KSGR 032328Z 0400/0424 VRB05KT P6SM SCT070 BKN250 FM040300 VRB04KT P6SM FEW070 BKN150 FM042100 VRB06KT P6SM VCTS SCT050CB SCT250